Change the Weather History Date:

Tuesday, October 8, 2013

  Actual Average Record
Temperature  
Mean Temperature 27 °F -  
Max Temperature 35 °F 19 °F 37 °F (2006)
Min Temperature 19 °F 9 °F -14 °F (1996)
Degree Days  
Heating Degree Days 38    
Moisture  
Dew Point 17 °F    
Average Humidity 67    
Maximum Humidity 80    
Minimum Humidity 52    
Precipitation  
Precipitation 0.00 in - - ()
Sea Level Pressure  
Sea Level Pressure 29.22 in    
Wind  
Wind Speed 7 mph (SSW)    
Max Wind Speed 15 mph    
Max Gust Speed 17 mph    
Visibility 9 miles    
Events      
Averages and records for this station are not official NWS values.
T = Trace of Precipitation, MM = Missing Value Source: NWS Daily Summary

Daily Weather History Graph

Daily Weather History Graph

Search for Another Location

Airport or City:

Trip Planner

Search our weather history database for the weather conditions in past years. The results will help you decide how hot, cold, wet, or windy it might be!

Date:

Astronomy

Oct. 08, 2013 Rise Set
Actual Time 8:47 AM AKDT 6:59 PM AKDT
Civil Twilight 7:50 AM AKDT 7:55 PM AKDT
Nautical Twilight 6:45 AM AKDT 9:00 PM AKDT
Astronomical Twilight 5:35 AM AKDT 10:09 PM AKDT
Moon 3:11 PM AKDT (10/8) 7:24 PM AKDT (10/8)
Length of Visible Light 12h 05m
Length of Day
10h 12m
Waxing Crescent, 17% of the Moon is Illuminated
Oct 8
Waxing Crescent
Oct 11
First Quarter
Oct 18
Full
Oct 26
Last Quarter
Nov 3
New

Hourly Weather History & Observations

Time (AKDT) Temp. Windchill Dew Point Humidity Pressure Visibility Wind Dir Wind Speed Gust Speed Precip Events Conditions
12:16 AM 24.8 °F 14.0 °F 15.8 °F 69% 29.63 in 10.0 mi South 11.5 mph - N/A   Clear
12:36 AM 24.8 °F 14.0 °F 15.8 °F 69% 29.63 in 10.0 mi South 11.5 mph - N/A   Clear
12:56 AM 23.0 °F 12.4 °F 15.8 °F 74% 29.61 in 10.0 mi South 10.4 mph - N/A   Clear
1:16 AM 24.8 °F 14.6 °F 15.8 °F 69% 29.60 in 10.0 mi South 10.4 mph - N/A   Clear
1:36 AM 24.8 °F 14.6 °F 15.8 °F 69% 29.59 in 10.0 mi SSW 10.4 mph - N/A   Clear
1:56 AM 24.8 °F 15.3 °F 15.8 °F 69% 29.58 in 10.0 mi South 9.2 mph - N/A   Clear
2:16 AM 23.0 °F 18.4 °F 15.8 °F 74% 29.57 in 10.0 mi SSE 3.5 mph - N/A   Clear
2:36 AM 23.0 °F 18.4 °F 15.8 °F 74% 29.56 in 10.0 mi South 3.5 mph - N/A   Clear
2:56 AM 21.2 °F 13.6 °F 15.8 °F 80% 29.54 in 10.0 mi SSE 5.8 mph - N/A   Clear
3:16 AM 21.2 °F 12.6 °F 15.8 °F 80% 29.53 in 10.0 mi South 6.9 mph - N/A   Clear
3:36 AM 21.2 °F 11.7 °F 15.8 °F 80% 29.52 in 10.0 mi SSE 8.1 mph - N/A   Clear
3:56 AM 21.2 °F 11.7 °F 15.8 °F 80% 29.51 in 10.0 mi South 8.1 mph - N/A   Clear
4:16 AM 21.2 °F 13.6 °F 14.0 °F 74% 29.50 in 10.0 mi South 5.8 mph - N/A   Scattered Clouds
4:36 AM 21.2 °F 12.6 °F 15.8 °F 80% 29.49 in 10.0 mi South 6.9 mph - N/A   Scattered Clouds
4:56 AM 21.2 °F 14.9 °F 15.8 °F 80% 29.47 in 10.0 mi South 4.6 mph - N/A   Mostly Cloudy
5:16 AM 21.2 °F 13.6 °F 15.8 °F 80% 29.46 in 10.0 mi South 5.8 mph - N/A   Overcast
5:36 AM 21.2 °F 12.6 °F 15.8 °F 80% 29.44 in 10.0 mi SSE 6.9 mph - N/A   Overcast
5:56 AM 21.2 °F 10.9 °F 15.8 °F 80% 29.43 in 6.0 mi South 9.2 mph - N/A   Overcast
6:16 AM 21.2 °F 12.6 °F 15.8 °F 80% 29.42 in 1.2 mi SSW 6.9 mph - N/A   Overcast
6:36 AM 21.2 °F 13.6 °F 15.8 °F 80% 29.40 in 0.5 mi SSW 5.8 mph - N/A   Overcast
6:56 AM 21.2 °F 14.9 °F 15.8 °F 80% 29.39 in 0.5 mi SW 4.6 mph - N/A   Overcast
7:16 AM 19.4 °F 14.3 °F 14.0 °F 80% 29.37 in 0.5 mi South 3.5 mph - N/A   Overcast
7:36 AM 19.4 °F 12.8 °F 12.2 °F 74% 29.36 in 0.5 mi SW 4.6 mph - N/A   Overcast
7:56 AM 19.4 °F 12.8 °F 12.2 °F 74% 29.35 in 0.5 mi South 4.6 mph - N/A   Overcast
8:16 AM 19.4 °F - 12.2 °F 74% 29.33 in 0.8 mi Calm Calm - N/A   Overcast
8:36 AM 19.4 °F - 12.2 °F 74% 29.32 in 3.0 mi Calm Calm - N/A   Overcast
8:56 AM 19.4 °F - 14.0 °F 80% 29.31 in 10.0 mi Calm Calm - N/A   Mostly Cloudy
9:16 AM 19.4 °F - 12.2 °F 74% 29.29 in 10.0 mi Calm Calm - N/A   Partly Cloudy
9:36 AM 19.4 °F 14.3 °F 14.0 °F 80% 29.27 in 10.0 mi SSE 3.5 mph - N/A   Partly Cloudy
9:56 AM 21.2 °F - 15.8 °F 80% 29.26 in 10.0 mi Calm Calm - N/A   Scattered Clouds
10:16 AM 21.2 °F 14.9 °F 14.0 °F 74% 29.25 in 10.0 mi South 4.6 mph - N/A   Clear
10:36 AM 21.2 °F 16.4 °F 15.8 °F 80% 29.23 in 10.0 mi SW 3.5 mph - N/A   Partly Cloudy
10:56 AM 21.2 °F - 15.8 °F 80% 29.22 in 10.0 mi Calm Calm - N/A   Clear
11:16 AM 23.0 °F 18.4 °F 15.8 °F 74% 29.19 in 10.0 mi WSW 3.5 mph - N/A   Partly Cloudy
11:36 AM 24.8 °F 20.5 °F 15.8 °F 69% 29.18 in 10.0 mi SSW 3.5 mph - N/A   Partly Cloudy
11:56 AM 26.6 °F 22.6 °F 17.6 °F 69% 29.17 in 10.0 mi NNE 3.5 mph - N/A   Mostly Cloudy
12:16 PM 30.2 °F 25.4 °F 19.4 °F 64% 29.16 in 10.0 mi WNW 4.6 mph - N/A   Mostly Cloudy
12:36 PM 30.2 °F - 19.4 °F 64% 29.15 in 10.0 mi Calm Calm - N/A   Overcast
12:56 PM 32.0 °F - 19.4 °F 60% 29.14 in 10.0 mi Calm Calm - N/A   Overcast
1:16 PM 33.8 °F 29.6 °F 19.4 °F 56% 29.13 in 10.0 mi North 4.6 mph - N/A   Overcast
1:36 PM 33.8 °F - 19.4 °F 56% 29.12 in 10.0 mi Calm Calm - N/A   Overcast
1:56 PM 33.8 °F 30.8 °F 21.2 °F 60% 29.11 in 5.0 mi West 3.5 mph - N/A   Overcast
2:16 PM 33.8 °F 28.6 °F 21.2 °F 60% 29.10 in 10.0 mi SSW 5.8 mph - N/A   Overcast
2:36 PM 33.8 °F 30.8 °F 21.2 °F 60% 29.08 in 10.0 mi WSW 3.5 mph - N/A   Mostly Cloudy
2:56 PM 35.6 °F 30.7 °F 19.4 °F 52% 29.07 in 10.0 mi South 5.8 mph - N/A   Mostly Cloudy
3:16 PM 35.6 °F 28.0 °F 19.4 °F 52% 29.06 in 10.0 mi South 10.4 mph - N/A   Mostly Cloudy
3:36 PM 35.6 °F 27.1 °F 19.4 °F 52% 29.05 in 10.0 mi SSW 12.7 mph 16.1 mph N/A   Mostly Cloudy
3:56 PM 35.6 °F 30.7 °F 19.4 °F 52% 29.04 in 10.0 mi SW 5.8 mph - N/A   Mostly Cloudy
4:16 PM 35.6 °F 29.2 °F 19.4 °F 52% 29.03 in 10.0 mi SSW 8.1 mph - N/A   Mostly Cloudy
4:36 PM 35.6 °F 28.0 °F 19.4 °F 52% 29.02 in 10.0 mi SSW 10.4 mph 17.3 mph N/A   Overcast
4:56 PM 35.6 °F 26.2 °F 19.4 °F 52% 29.02 in 10.0 mi South 15.0 mph - N/A   Mostly Cloudy
5:16 PM 35.6 °F 26.2 °F 19.4 °F 52% 29.01 in 10.0 mi South 15.0 mph - N/A   Mostly Cloudy
5:36 PM 33.8 °F 24.8 °F 19.4 °F 56% 29.01 in 10.0 mi SSW 12.7 mph - N/A   Mostly Cloudy
5:56 PM 33.8 °F 25.8 °F 19.4 °F 56% 29.00 in 10.0 mi SSW 10.4 mph - N/A   Overcast
6:16 PM 33.8 °F 26.4 °F 19.4 °F 56% 29.00 in 10.0 mi SSW 9.2 mph - N/A   Scattered Clouds
6:36 PM 33.8 °F 25.3 °F 19.4 °F 56% 28.99 in 10.0 mi South 11.5 mph - N/A   Mostly Cloudy
6:56 PM 33.8 °F 25.3 °F 19.4 °F 56% 28.99 in 10.0 mi South 11.5 mph - N/A   Mostly Cloudy
7:16 PM 33.8 °F 25.8 °F 19.4 °F 56% 28.99 in 10.0 mi SSW 10.4 mph - N/A   Overcast
7:36 PM 33.8 °F 25.3 °F 19.4 °F 56% 28.99 in 10.0 mi SSW 11.5 mph - N/A   Overcast
7:56 PM 33.8 °F 25.3 °F 19.4 °F 56% 28.98 in 10.0 mi SSW 11.5 mph - N/A   Overcast
8:16 PM 33.8 °F 25.8 °F 19.4 °F 56% 28.98 in 10.0 mi SSW 10.4 mph - N/A   Overcast
8:36 PM 33.8 °F 26.4 °F 19.4 °F 56% 28.98 in 10.0 mi SSW 9.2 mph - N/A   Mostly Cloudy
8:56 PM 32.0 °F 25.6 °F 19.4 °F 60% 28.97 in 10.0 mi SW 6.9 mph - N/A   Mostly Cloudy
9:16 PM 32.0 °F 24.2 °F 19.4 °F 60% 28.96 in 10.0 mi SSW 9.2 mph - N/A   Overcast
9:36 PM 32.0 °F 24.2 °F 19.4 °F 60% 28.96 in 10.0 mi SW 9.2 mph - N/A   Overcast
9:56 PM 30.2 °F 21.3 °F 19.4 °F 64% 28.96 in 10.0 mi SW 10.4 mph - N/A   Overcast
10:16 PM 30.2 °F 21.9 °F 19.4 °F 64% 28.96 in 10.0 mi SW 9.2 mph - N/A   Overcast
10:36 PM 30.2 °F 21.9 °F 19.4 °F 64% 28.97 in 10.0 mi SSW 9.2 mph - N/A   Overcast
10:56 PM 30.2 °F 22.6 °F 19.4 °F 64% 28.97 in 10.0 mi SW 8.1 mph - N/A   Overcast
11:16 PM 30.2 °F 21.3 °F 19.4 °F 64% 28.97 in 10.0 mi SW 10.4 mph - N/A   Overcast
11:36 PM 30.2 °F 21.3 °F 19.4 °F 64% 28.97 in 10.0 mi SW 10.4 mph - N/A   Overcast
11:56 PM 30.2 °F 22.6 °F 21.2 °F 69% 28.97 in 10.0 mi SW 8.1 mph - N/A   Overcast